Aeroporto :
LOGIN :

Iscrizione | Disclaimer

   EN    FR    IT 

 










Sommario :    VFR   VFR Marginale   IFR   IFR Intensivo   IFR Molto Intensivo
Visibilità : 
Base nubi : 
>= 8 km
>= 3000ft
5 / 8 km
1000 / 3000 ft
1500m / 5 km
500 / 1000 ft
800 / 1500m
200 / 500 ft
< 800m
< 200 ft
Simboli :   Temporali  Nebbia  Neve Forte  Precipitazioni Forti  Vento > 20 kt
SIGMETs :   Varie  Temporali  Ghiacco  Turbolenza  Onda orograficha  Ceneri Vulcaniche







- Altitudine del aeroporto : 286 ft
- Codice IATA : TRF


ENTO - Sandefjord , Torp

ULTIMO METAR :
  • 131620Z 18003KT 9999 BKN018 OVC035 07/07 Q1011

METARs OBSOLETI :
  • 131550Z 17005KT 9999 FEW017 SCT020 BKN030 07/07 Q1011
  • 131520Z 15003KT 9999 FEW001 SCT026 BKN031 07/07 Q1011
  • 131450Z 16004KT 9999 VCFG FEW000 SCT027 BKN035 07/07 Q1011 RERA
  • 131420Z VRB01KT 6000 DZ FEW010 SCT019 BKN031 07/07 Q1011
  • 131350Z VRB02KT 9999 RA FEW005 BKN020 07/07 Q1010

AMD TAF ENTO
Valido dal 13 a 15 ore il 14 a 12 ore UTC


1315/1412 18008KT 9999 -SHRA SCT010 BKN020
TEMPO 1315/1319 2000 SHRA BR BKN008 FEW015CB
BECMG 1319/1321 0300 FG VV001
TEMPO 1319/1412 4000 BR OVC004
Nessun NOTAM noto per questo aeroporto.



MetMap, La meteo Aeronautica in un colpo d'occhio ! - Copyright ORBIFLY Dicembre 2007 - Disclaimer

ORBIFLY MET'MAP TEAM :

Programmazione e sviluppo : Alexandra Zaïnal
Concezione e sviluppo : Baudouin d'Aumeries
Co-Programmazione e sviluppo : Marc-Olivier Méhu
Supporto tecnico e logistico : Manuel Goepfert
Aiuto per la traduzione : Arnaldo La Scala

Contatto : metmap@orbifly.com




FONTI E CREDITI :

   NOAA